Time;durP1;ratioP1;P1;durP2;ratioP2;P2;SDS_P1;SDS_P2;PMS_P1;PMS_P2;Temp;Humidity;BMP_temperature;BMP_pressure;BME280_temperature;BME280_humidity;BME280_pressure;Samples;Min_cycle;Max_cycle;Signal;HPM_P1;HPM_P2
2021/07/27 00:00:15;;;;;;;;;15.00;11.00;;;;;25.82;48.12;100931.63;4999647;28;58558;-60
2021/07/27 00:02:40;;;;;;;;;12.50;12.50;;;;;25.81;48.19;100937.44;4994678;28;51070;-60
2021/07/27 00:05:06;;;;;;;;;14.00;11.00;;;;;25.79;47.70;100937.69;4995026;28;51122;-59
2021/07/27 00:07:31;;;;;;;;;12.50;11.25;;;;;25.78;48.17;100938.78;4994572;28;51538;-59
2021/07/27 00:09:56;;;;;;;;;12.50;10.50;;;;;25.78;47.87;100938.78;4994396;28;51151;-60
2021/07/27 00:12:22;;;;;;;;;12.25;12.25;;;;;25.77;47.98;100937.13;4994673;28;51285;-59
2021/07/27 00:14:47;;;;;;;;;13.25;12.00;;;;;25.77;47.95;100937.13;4994820;28;51048;-59
2021/07/27 00:17:12;;;;;;;;;14.75;13.75;;;;;25.76;47.93;100941.00;4993303;28;51050;-59
2021/07/27 00:19:38;;;;;;;;;11.00;11.00;;;;;25.75;47.83;100933.75;5005492;28;51107;-60
2021/07/27 00:22:03;;;;;;;;;13.25;13.00;;;;;25.74;47.88;100937.63;4994588;28;51319;-59
2021/07/27 00:24:28;;;;;;;;;14.75;12.50;;;;;25.74;47.83;100934.00;4994680;28;51006;-59
2021/07/27 00:26:54;;;;;;;;;13.75;11.25;;;;;25.73;47.76;100927.59;4994578;28;50996;-60
2021/07/27 00:29:22;;;;;;;;;11.25;10.25;;;;;25.72;47.69;100922.31;4994688;28;50922;-59
2021/07/27 00:31:47;;;;;;;;;11.75;10.00;;;;;25.71;47.97;100921.47;4994291;28;51236;-59
2021/07/27 00:34:13;;;;;;;;;13.00;10.25;;;;;25.71;47.61;100915.94;4996258;28;51337;-59
2021/07/27 00:36:38;;;;;;;;;13.00;13.00;;;;;25.71;47.54;100917.88;4997404;28;51708;-59
2021/07/27 00:39:03;;;;;;;;;12.00;11.00;;;;;25.71;47.44;100920.63;4999726;28;51417;-59
2021/07/27 00:41:29;;;;;;;;;13.50;9.75;;;;;25.69;47.55;100923.63;4997648;28;51090;-60
2021/07/27 00:43:54;;;;;;;;;14.50;12.75;;;;;25.68;47.48;100918.34;4998089;28;50981;-59
2021/07/27 00:46:19;;;;;;;;;12.50;8.50;;;;;25.67;47.54;100916.69;4997559;28;50971;-59
2021/07/27 00:48:45;;;;;;;;;11.75;11.00;;;;;25.66;47.50;100913.06;4998558;28;50965;-59
2021/07/27 00:51:10;;;;;;;;;11.75;10.50;;;;;25.66;47.60;100901.97;4997742;28;51146;-60
2021/07/27 00:53:36;;;;;;;;;13.50;10.75;;;;;25.65;47.35;100903.06;4997182;28;50988;-59
2021/07/27 00:56:06;;;;;;;;;10.75;9.25;;;;;25.65;47.38;100911.38;4997606;28;51064;-60
2021/07/27 00:58:32;;;;;;;;;12.75;10.00;;;;;25.65;47.41;100916.09;4997784;28;51550;-59
2021/07/27 01:00:58;;;;;;;;;10.00;8.75;;;;;25.64;47.37;100915.25;4997101;28;51123;-59
2021/07/27 01:03:23;;;;;;;;;10.00;9.00;;;;;25.62;47.49;100909.09;4997670;28;51135;-59
2021/07/27 01:05:50;;;;;;;;;14.00;11.50;;;;;25.61;47.49;100911.03;4997414;28;50995;-60
2021/07/27 01:08:15;;;;;;;;;11.25;9.75;;;;;25.61;47.34;100907.44;4996916;28;51232;-59
2021/07/27 01:10:41;;;;;;;;;11.25;11.25;;;;;25.62;47.66;100920.19;5006642;28;51115;-59
2021/07/27 01:13:06;;;;;;;;;11.25;9.25;;;;;25.60;47.50;100917.69;4997453;28;51189;-59
2021/07/27 01:15:32;;;;;;;;;11.25;11.00;;;;;25.60;47.60;100919.63;4997142;28;50992;-59
2021/07/27 01:18:07;;;;;;;;;9.00;8.25;;;;;25.60;47.23;100911.31;4996936;28;51092;-59
2021/07/27 01:20:39;;;;;;;;;14.75;12.75;;;;;25.59;47.51;100912.41;5008254;28;50900;-59
2021/07/27 01:39:34;;;;;;;;;9.75;9.25;;;;;25.54;47.58;100904.00;4997864;28;51334;-59
2021/07/27 01:44:45;;;;;;;;;9.50;9.50;;;;;25.53;47.57;100899.53;4995633;28;51494;-59
2021/07/27 01:47:19;;;;;;;;;10.75;10.00;;;;;25.53;47.67;100896.75;4994958;28;51839;-58
2021/07/27 01:49:46;;;;;;;;;12.00;10.75;;;;;25.52;47.68;100895.09;5002489;28;51417;-58
2021/07/27 01:52:16;;;;;;;;;14.00;12.50;;;;;25.51;47.74;100904.50;4996649;28;51153;-60
2021/07/27 01:54:47;;;;;;;;;10.25;8.50;;;;;25.52;47.49;100900.63;4989072;28;51261;-60
2021/07/27 01:57:13;;;;;;;;;11.75;9.25;;;;;25.50;47.86;100895.34;4996240;28;52357;-60
2021/07/27 01:59:40;;;;;;;;;10.25;8.50;;;;;25.49;47.50;100890.06;5002669;28;51046;-60
2021/07/27 02:02:06;;;;;;;;;15.00;11.25;;;;;25.48;47.83;100882.84;4996713;28;51143;-60
2021/07/27 02:04:32;;;;;;;;;13.00;12.75;;;;;25.48;47.77;100885.59;4996505;28;51321;-60
2021/07/27 02:06:58;;;;;;;;;10.50;10.25;;;;;25.47;47.66;100884.78;4995901;28;51549;-60
2021/07/27 02:09:24;;;;;;;;;11.25;10.25;;;;;25.47;47.79;100881.16;4996074;28;51072;-60
2021/07/27 02:11:53;;;;;;;;;10.25;9.50;;;;;25.47;47.67;100881.16;4996330;28;51049;-61
2021/07/27 02:14:19;;;;;;;;;10.00;9.00;;;;;25.46;47.50;100885.88;4996433;28;51093;-60
2021/07/27 02:16:44;;;;;;;;;11.75;11.75;;;;;25.46;47.62;100885.03;4996239;28;51621;-60
2021/07/27 02:19:10;;;;;;;;;10.25;9.25;;;;;25.45;47.72;100881.41;4996463;28;50953;-60
2021/07/27 02:21:35;;;;;;;;;13.75;9.00;;;;;25.45;47.75;100888.91;4995875;28;51045;-60
2021/07/27 02:24:02;;;;;;;;;14.25;14.25;;;;;25.44;48.21;100885.28;5010762;28;51803;-60
2021/07/27 02:26:28;;;;;;;;;9.25;9.25;;;;;25.45;47.72;100880.59;4996162;28;51845;-60
2021/07/27 02:28:53;;;;;;;;;15.25;13.25;;;;;25.46;47.87;100876.72;4999519;28;51228;-60
2021/07/27 02:31:26;;;;;;;;;10.75;8.50;;;;;25.44;48.07;100882.50;4996841;28;51170;-60
2021/07/27 02:33:52;;;;;;;;;11.50;9.00;;;;;25.45;47.99;100883.34;4996381;28;51319;-60
2021/07/27 02:36:17;;;;;;;;;12.50;11.00;;;;;25.43;47.88;100877.19;4995796;28;51794;-60
2021/07/27 02:38:42;;;;;;;;;11.25;9.50;;;;;25.43;47.84;100879.97;4996767;28;50973;-60
2021/07/27 02:41:12;;;;;;;;;14.75;10.50;;;;;25.41;48.26;100871.91;4996247;28;51077;-60
2021/07/27 02:43:37;;;;;;;;;13.00;9.75;;;;;25.42;48.02;100861.66;4996325;28;51104;-60
2021/07/27 02:46:02;;;;;;;;;9.00;8.25;;;;;25.40;47.57;100873.00;4995636;28;51672;-61
2021/07/27 02:48:28;;;;;;;;;12.75;12.25;;;;;25.41;47.92;100865.53;4998733;28;51048;-61
2021/07/27 02:51:03;;;;;;;;;15.00;12.25;;;;;25.39;48.06;100868.56;5000326;28;51078;-60
2021/07/27 02:53:31;;;;;;;;;10.50;10.00;;;;;25.38;47.69;100869.66;4988044;28;51151;-61
2021/07/27 02:55:58;;;;;;;;;10.00;9.50;;;;;25.36;48.27;100866.31;4989822;28;51159;-59
2021/07/27 02:58:24;;;;;;;;;13.00;11.50;;;;;25.36;48.13;100868.25;4996446;28;51414;-60
2021/07/27 03:00:49;;;;;;;;;14.00;13.00;;;;;25.36;47.88;100866.31;4995988;28;51198;-59
2021/07/27 03:03:14;;;;;;;;;15.25;11.75;;;;;25.36;47.74;100873.78;5010714;28;51105;-60
2021/07/27 03:05:40;;;;;;;;;13.75;11.50;;;;;25.35;47.92;100866.56;5010572;28;52887;-59
2021/07/27 03:08:11;;;;;;;;;13.25;12.75;;;;;25.35;47.93;100872.09;4995744;28;50975;-60
2021/07/27 03:10:36;;;;;;;;;13.00;9.50;;;;;25.33;47.82;100866.81;4997681;28;51110;-60
2021/07/27 03:13:01;;;;;;;;;11.50;10.75;;;;;25.33;48.23;100862.13;4995783;28;51104;-59
2021/07/27 03:15:29;;;;;;;;;12.75;12.00;;;;;25.31;48.03;100858.72;4996620;28;51013;-60
2021/07/27 03:17:56;;;;;;;;;10.50;10.50;;;;;25.31;48.22;100857.88;4995855;28;51195;-59
2021/07/27 03:20:23;;;;;;;;;9.50;8.00;;;;;25.32;47.96;100862.34;5000423;28;50921;-59
2021/07/27 03:22:52;;;;;;;;;10.75;9.75;;;;;25.30;48.05;100859.00;4995267;28;51206;-60
2021/07/27 03:25:19;;;;;;;;;11.00;10.50;;;;;25.30;48.08;100853.44;4995602;28;51066;-60
2021/07/27 03:27:46;;;;;;;;;9.75;8.25;;;;;25.29;47.83;100847.06;4995317;28;51202;-59
2021/07/27 03:30:12;;;;;;;;;11.25;11.25;;;;;25.28;47.98;100842.63;4995652;28;51144;-60
2021/07/27 03:32:38;;;;;;;;;13.50;11.25;;;;;25.26;48.00;100842.03;4995269;28;51212;-60
2021/07/27 03:35:04;;;;;;;;;12.00;12.00;;;;;25.27;47.97;100835.41;4994486;28;50947;-60
2021/07/27 03:37:32;;;;;;;;;12.75;12.50;;;;;25.27;47.87;100838.16;4995354;28;51288;-60
2021/07/27 03:39:57;;;;;;;;;12.50;12.50;;;;;25.27;47.94;100840.09;5002856;28;51074;-59
2021/07/27 03:42:26;;;;;;;;;9.50;8.50;;;;;25.26;47.93;100828.19;4995162;28;51401;-59
2021/07/27 03:44:56;;;;;;;;;12.75;10.50;;;;;25.25;48.01;100826.50;4994936;28;51139;-59
2021/07/27 03:47:21;;;;;;;;;10.25;9.50;;;;;25.24;48.21;100830.38;4993980;28;51291;-60
2021/07/27 03:49:47;;;;;;;;;11.75;10.25;;;;;25.24;48.13;100819.28;4998153;28;51367;-60
2021/07/27 03:52:12;;;;;;;;;13.00;11.75;;;;;25.25;48.15;100820.94;4995192;28;51129;-59
2021/07/27 03:54:37;;;;;;;;;11.25;10.50;;;;;25.24;48.27;100822.06;4994740;28;51070;-60
2021/07/27 03:57:06;;;;;;;;;11.00;9.25;;;;;25.23;48.09;100823.16;4994834;28;51362;-59
2021/07/27 03:59:32;;;;;;;;;16.75;13.25;;;;;25.24;48.27;100821.22;4996955;28;51294;-59
2021/07/27 04:01:58;;;;;;;;;15.50;12.00;;;;;25.23;48.45;100820.38;4995258;28;50965;-60
2021/07/27 04:04:23;;;;;;;;;13.50;12.25;;;;;25.22;48.36;100821.47;4994559;28;51011;-59
2021/07/27 04:06:50;;;;;;;;;12.25;10.75;;;;;25.21;48.29;100822.53;4994502;28;51018;-60
2021/07/27 04:09:15;;;;;;;;;13.50;11.25;;;;;25.19;48.46;100821.97;4998286;28;51192;-59
2021/07/27 04:11:41;;;;;;;;;15.00;13.75;;;;;25.21;48.29;100816.16;4998613;28;51229;-60
2021/07/27 04:14:07;;;;;;;;;16.75;13.25;;;;;25.19;48.24;100819.19;4997600;28;51989;-60
2021/07/27 04:16:32;;;;;;;;;13.75;12.00;;;;;25.19;48.61;100813.63;5000029;28;51322;-59
2021/07/27 04:18:58;;;;;;;;;12.00;11.00;;;;;25.19;48.32;100824.72;5001119;28;51071;-60
2021/07/27 04:21:26;;;;;;;;;13.00;10.50;;;;;25.18;48.41;100819.44;4998164;28;51019;-59
2021/07/27 04:23:51;;;;;;;;;13.00;11.25;;;;;25.17;48.38;100824.16;4997580;28;51314;-60
2021/07/27 04:26:17;;;;;;;;;13.25;9.00;;;;;25.17;48.44;100821.38;4998218;28;51202;-59
2021/07/27 04:28:42;;;;;;;;;13.75;10.75;;;;;25.17;48.27;100826.09;5002989;28;51158;-59
2021/07/27 04:31:08;;;;;;;;;11.75;11.75;;;;;25.16;48.48;100839.09;4999425;28;51160;-59
2021/07/27 04:33:33;;;;;;;;;13.50;10.75;;;;;25.16;48.38;100838.28;4997524;28;51811;-59
2021/07/27 04:35:58;;;;;;;;;12.33;12.00;;;;;25.16;48.43;100836.34;4997776;28;51100;-59
2021/07/27 04:38:24;;;;;;;;;12.50;10.50;;;;;25.15;48.60;100842.97;4997580;28;51148;-60
2021/07/27 04:40:53;;;;;;;;;12.25;12.00;;;;;25.15;48.34;100842.13;4997948;28;51057;-59
2021/07/27 04:43:19;;;;;;;;;11.00;11.00;;;;;25.14;48.52;100838.53;4997531;28;51757;-60
2021/07/27 04:45:44;;;;;;;;;12.75;11.25;;;;;25.13;48.41;100825.75;4997890;28;51193;-59
2021/07/27 04:48:09;;;;;;;;;13.25;10.50;;;;;25.13;48.41;100827.69;4997533;28;51075;-59
2021/07/27 04:50:39;;;;;;;;;11.25;10.50;;;;;25.12;48.14;100809.41;4989401;28;51137;-60
2021/07/27 04:53:10;;;;;;;;;13.25;10.00;;;;;25.12;48.31;100815.78;4997067;28;52428;-59
2021/07/27 04:55:36;;;;;;;;;11.00;10.75;;;;;25.10;48.43;100804.06;4997530;28;51204;-60
2021/07/27 04:58:05;;;;;;;;;13.50;12.50;;;;;25.10;48.67;100811.56;4997916;28;51086;-60
2021/07/27 05:00:31;;;;;;;;;14.00;12.50;;;;;25.11;48.42;100818.78;4996035;28;51166;-59
2021/07/27 05:02:59;;;;;;;;;13.75;12.00;;;;;25.11;48.36;100835.41;4996940;28;52012;-59
2021/07/27 05:05:25;;;;;;;;;13.00;10.75;;;;;25.10;48.21;100830.97;4997106;28;51045;-60
2021/07/27 05:07:52;;;;;;;;;15.25;9.75;;;;;25.10;48.68;100833.72;4996166;28;51045;-60
2021/07/27 05:10:18;;;;;;;;;14.75;12.00;;;;;25.09;48.41;100813.50;4998965;28;51186;-59
2021/07/27 05:12:43;;;;;;;;;12.75;10.75;;;;;25.08;48.23;100811.81;4996931;28;51054;-59
2021/07/27 05:15:09;;;;;;;;;12.75;12.25;;;;;25.07;48.49;100807.38;4997087;28;51219;-59
2021/07/27 05:17:35;;;;;;;;;11.00;11.00;;;;;25.06;48.29;100819.53;4997318;28;50976;-59
2021/07/27 05:20:01;;;;;;;;;12.25;10.25;;;;;25.06;48.66;100811.22;4991000;28;51299;-60
2021/07/27 05:22:27;;;;;;;;;14.25;12.00;;;;;25.06;48.47;100822.31;4996403;28;51867;-60
2021/07/27 05:24:53;;;;;;;;;11.75;10.00;;;;;25.06;48.46;100836.19;4997040;28;51138;-60
2021/07/27 05:27:23;;;;;;;;;10.50;9.50;;;;;25.05;48.42;100842.81;4997122;28;51176;-59
2021/07/27 05:29:50;;;;;;;;;11.25;11.00;;;;;25.05;48.48;100842.81;4997247;28;50996;-59
2021/07/27 05:32:15;;;;;;;;;15.50;14.00;;;;;25.03;48.50;100843.06;4995524;28;51937;-59
2021/07/27 05:34:41;;;;;;;;;12.75;11.00;;;;;25.04;48.42;100832.81;4995699;28;50983;-59
2021/07/27 05:37:06;;;;;;;;;12.25;10.75;;;;;25.02;48.54;100835.84;4993884;28;51115;-59
2021/07/27 05:39:32;;;;;;;;;11.50;11.00;;;;;25.00;48.67;100835.22;4993935;28;51378;-59
2021/07/27 05:41:57;;;;;;;;;13.00;11.00;;;;;25.01;48.57;100836.94;4996773;28;51075;-61
2021/07/27 05:44:25;;;;;;;;;15.25;11.00;;;;;25.02;48.90;100854.41;4996224;28;51294;-58
2021/07/27 05:46:54;;;;;;;;;13.25;13.00;;;;;25.00;48.37;100853.78;4995642;28;51110;-60
2021/07/27 05:49:21;;;;;;;;;9.75;9.00;;;;;25.01;48.76;100859.13;4995190;28;51151;-60
2021/07/27 05:51:47;;;;;;;;;11.25;10.25;;;;;25.01;48.34;100856.34;4995042;28;51030;-59
2021/07/27 05:54:12;;;;;;;;;13.50;11.00;;;;;25.01;48.41;100859.13;4995828;28;51176;-59
2021/07/27 05:56:38;;;;;;;;;13.50;11.00;;;;;25.00;48.28;100859.31;4995732;28;51354;-60
2021/07/27 05:59:03;;;;;;;;;11.50;11.25;;;;;25.00;48.47;100870.41;4994359;28;51155;-59
2021/07/27 06:01:28;;;;;;;;;12.00;9.50;;;;;25.00;48.46;100878.72;4993181;28;51112;-59
2021/07/27 06:03:54;;;;;;;;;12.50;11.75;;;;;24.99;48.35;100877.88;4993109;28;51056;-60
2021/07/27 06:06:20;;;;;;;;;13.75;12.75;;;;;25.00;48.65;100884.25;4995333;28;51049;-60
2021/07/27 06:08:45;;;;;;;;;11.00;9.00;;;;;25.01;49.34;100880.38;4994605;28;51156;-60
2021/07/27 06:11:11;;;;;;;;;12.00;10.00;;;;;25.03;48.86;100881.03;4995578;28;57742;-60
2021/07/27 06:13:36;;;;;;;;;12.25;11.50;;;;;25.05;49.04;100881.63;4995465;28;51568;-60
2021/07/27 06:16:05;;;;;;;;;13.25;11.00;;;;;25.07;49.18;100893.28;4996337;28;51154;-61
2021/07/27 06:18:34;;;;;;;;;12.50;11.25;;;;;25.08;48.97;100891.34;4995887;28;51273;-60
2021/07/27 06:21:00;;;;;;;;;11.50;10.00;;;;;25.09;49.13;100893.88;4995549;28;52151;-59
2021/07/27 06:23:26;;;;;;;;;11.00;11.00;;;;;25.11;48.74;100888.91;4992815;28;51724;-59
2021/07/27 06:25:52;;;;;;;;;12.50;11.00;;;;;25.12;48.77;100890.63;4995209;28;51381;-59
2021/07/27 06:28:17;;;;;;;;;14.00;13.50;;;;;25.13;48.74;100877.59;4993089;28;50969;-59
2021/07/27 06:30:42;;;;;;;;;11.25;10.25;;;;;25.14;48.98;100876.50;4989860;28;61935;-58
2021/07/27 06:33:08;;;;;;;;;10.75;10.00;;;;;25.14;49.12;100880.09;4984424;28;52535;-59
2021/07/27 06:35:33;;;;;;;;;11.00;11.00;;;;;25.13;49.21;100875.66;4992709;28;51088;-59
2021/07/27 06:37:58;;;;;;;;;11.75;11.75;;;;;25.14;49.08;100877.34;4995136;28;51428;-58
2021/07/27 06:40:24;;;;;;;;;13.00;12.50;;;;;25.15;48.85;100897.56;4989322;28;51710;-61
2021/07/27 06:42:49;;;;;;;;;13.25;13.00;;;;;25.14;49.00;100899.50;4986339;28;51150;-58
2021/07/27 06:45:15;;;;;;;;;14.00;11.75;;;;;25.14;49.03;100904.22;4990170;28;51235;-59
2021/07/27 06:47:40;;;;;;;;;15.25;12.00;;;;;25.13;48.66;100905.31;4986451;28;51288;-60
2021/07/27 06:50:06;;;;;;;;;12.25;12.25;;;;;25.13;48.51;100899.75;4992278;28;56857;-59
2021/07/27 06:52:31;;;;;;;;;11.50;9.75;;;;;25.11;48.81;100901.94;4994635;28;50980;-60
2021/07/27 06:54:57;;;;;;;;;12.00;8.00;;;;;25.10;48.43;100909.41;4991359;28;51171;-60
2021/07/27 06:57:22;;;;;;;;;16.00;13.00;;;;;25.10;48.45;100914.94;4992844;28;51103;-60
2021/07/27 06:59:47;;;;;;;;;15.25;11.50;;;;;25.09;48.58;100912.44;4994732;28;52247;-59
2021/07/27 07:02:13;;;;;;;;;11.25;10.50;;;;;25.09;48.24;100906.88;4994749;28;51161;-59
2021/07/27 07:04:38;;;;;;;;;15.25;12.75;;;;;25.06;48.24;100916.56;4994487;28;51122;-59
2021/07/27 07:07:07;;;;;;;;;14.25;10.75;;;;;25.06;48.48;100904.63;4994734;28;51277;-59
2021/07/27 07:09:32;;;;;;;;;17.75;13.50;;;;;25.03;48.34;100908.75;4994416;28;51102;-59
2021/07/27 07:11:57;;;;;;;;;11.50;11.50;;;;;25.03;48.29;100903.22;4993430;28;53372;-60
2021/07/27 07:14:23;;;;;;;;;11.50;11.25;;;;;25.02;48.15;100912.63;4993021;28;51232;-60
2021/07/27 07:16:49;;;;;;;;;19.50;13.00;;;;;25.00;48.20;100917.50;4994469;28;51126;-59
2021/07/27 07:19:14;;;;;;;;;11.75;11.25;;;;;25.00;48.36;100914.75;4992696;28;51870;-60
2021/07/27 07:21:40;;;;;;;;;11.75;10.75;;;;;24.97;48.12;100910.53;4998029;28;51131;-60
2021/07/27 07:24:06;;;;;;;;;13.00;10.25;;;;;24.97;48.24;100915.25;4996005;28;51171;-60
2021/07/27 07:26:31;;;;;;;;;11.00;11.00;;;;;24.95;48.09;100918.28;4997350;28;51281;-61
2021/07/27 07:28:57;;;;;;;;;12.50;11.50;;;;;24.95;48.32;100915.50;4993101;28;51881;-61
2021/07/27 07:31:22;;;;;;;;;10.25;10.25;;;;;24.94;47.80;100922.13;4994088;28;51044;-60
2021/07/27 07:33:47;;;;;;;;;12.75;10.50;;;;;24.94;48.67;100921.31;4994097;28;51666;-62
2021/07/27 07:36:14;;;;;;;;;11.25;11.25;;;;;24.93;48.06;100923.22;4994722;28;51090;-60
2021/07/27 07:38:41;;;;;;;;;13.00;12.25;;;;;24.93;48.05;100916.84;5008386;28;51152;-60
2021/07/27 07:41:07;;;;;;;;;11.00;10.25;;;;;24.93;48.03;100911.31;4995196;28;51138;-60
2021/07/27 07:43:33;;;;;;;;;11.25;11.25;;;;;24.91;48.35;100914.34;4996545;28;51171;-60
2021/07/27 07:45:58;;;;;;;;;11.25;10.50;;;;;24.90;47.82;100909.03;4997392;28;51059;-60
2021/07/27 07:48:24;;;;;;;;;13.00;10.00;;;;;24.90;47.92;100900.72;4999895;28;51111;-60
2021/07/27 07:50:49;;;;;;;;;10.50;10.25;;;;;24.89;47.95;100919.25;4996551;28;57802;-60
2021/07/27 07:53:14;;;;;;;;;10.25;10.25;;;;;24.88;48.01;100912.03;4997278;28;51057;-61
2021/07/27 07:55:40;;;;;;;;;13.25;10.00;;;;;24.89;47.70;100918.44;4997516;28;51242;-60
2021/07/27 07:58:05;;;;;;;;;10.75;10.75;;;;;24.89;48.11;100923.97;4997025;28;51894;-60
2021/07/27 08:00:30;;;;;;;;;11.50;10.75;;;;;24.88;47.80;100923.13;4996941;28;51121;-60
2021/07/27 08:02:56;;;;;;;;;8.50;8.50;;;;;24.86;48.13;100917.00;4997673;28;51794;-60
2021/07/27 08:05:22;;;;;;;;;14.50;11.50;;;;;24.86;48.12;100930.84;4997437;28;51186;-60
2021/07/27 08:07:47;;;;;;;;;12.25;8.50;;;;;24.86;47.79;100928.09;5004829;28;51829;-60
2021/07/27 08:10:14;;;;;;;;;14.50;13.25;;;;;24.84;48.01;100921.97;4997421;28;51012;-60
2021/07/27 08:12:40;;;;;;;;;13.50;12.25;;;;;24.84;48.18;100919.19;4996690;28;51064;-61
2021/07/27 08:15:05;;;;;;;;;13.00;12.50;;;;;24.84;48.11;100912.81;4997219;28;51153;-59
2021/07/27 08:17:31;;;;;;;;;12.75;10.50;;;;;24.83;48.05;100925.81;4996606;28;51833;-60
2021/07/27 08:19:56;;;;;;;;;11.75;9.75;;;;;24.82;48.03;100913.06;4996686;28;50992;-60
2021/07/27 08:22:21;;;;;;;;;11.00;10.75;;;;;24.82;47.95;100924.16;4996286;28;51204;-60
2021/07/27 08:24:47;;;;;;;;;12.00;9.00;;;;;24.82;48.11;100931.63;4997466;28;51397;-60
2021/07/27 08:27:12;;;;;;;;;10.75;10.75;;;;;24.82;47.92;100928.84;4991481;28;51174;-59
2021/07/27 08:29:38;;;;;;;;;12.00;11.00;;;;;24.81;48.02;100922.47;4988195;28;51178;-60
2021/07/27 08:32:08;;;;;;;;;13.25;11.50;;;;;24.70;47.83;100926.16;4988256;28;51255;-60
2021/07/27 08:34:37;;;;;;;;;12.50;12.50;;;;;24.34;48.15;100928.19;4993067;28;51365;-60
2021/07/27 08:37:04;;;;;;;;;19.25;14.25;;;;;23.90;48.64;100921.44;4993917;28;51110;-59
2021/07/27 08:39:29;;;;;;;;;13.75;13.25;;;;;23.42;49.58;100919.75;5010480;28;51180;-57
2021/07/27 08:42:00;;;;;;;;;14.75;11.25;;;;;23.06;50.08;100912.53;4990203;28;51173;-59
2021/07/27 08:44:28;;;;;;;;;11.75;11.50;;;;;22.81;50.98;100901.63;4992157;28;51252;-59
2021/07/27 08:46:55;;;;;;;;;17.75;13.00;;;;;22.73;51.19;100894.53;4990187;28;51102;-58
2021/07/27 08:49:21;;;;;;;;;10.25;8.75;;;;;22.61;51.89;100899.16;4990300;28;51393;-59
2021/07/27 08:51:46;;;;;;;;;19.75;17.25;;;;;22.48;51.95;100911.25;4992434;28;51170;-59
2021/07/27 08:54:15;;;;;;;;;15.75;12.75;;;;;22.34;52.45;100914.44;4992587;28;50996;-58
2021/07/27 08:56:47;;;;;;;;;11.00;10.50;;;;;22.19;52.81;100906.53;4989319;28;51170;-58
2021/07/27 08:59:14;;;;;;;;;15.25;12.75;;;;;22.19;52.94;100906.53;4991745;28;51548;-58
2021/07/27 09:01:39;;;;;;;;;15.25;15.00;;;;;22.16;53.06;100915.28;4992726;28;51161;-59
2021/07/27 09:04:05;;;;;;;;;14.25;14.00;;;;;22.13;54.02;100915.75;4994189;28;52908;-58
2021/07/27 09:06:30;;;;;;;;;16.75;13.75;;;;;22.15;54.21;100919.13;4989692;28;52049;-59
2021/07/27 09:09:10;;;;;;;;;14.75;12.25;;;;;22.13;53.64;100926.81;4993533;28;51164;-59
2021/07/27 09:11:49;;;;;;;;;15.50;15.00;;;;;22.04;54.54;100922.63;4993093;28;51039;-58
2021/07/27 09:14:16;;;;;;;;;16.00;14.75;;;;;22.00;54.93;100924.19;4991999;28;51403;-59
2021/07/27 09:16:43;;;;;;;;;16.50;14.00;;;;;22.00;54.45;100924.19;4993519;28;51868;-59
2021/07/27 09:19:08;;;;;;;;;21.00;15.50;;;;;22.00;54.80;100922.25;4995532;28;51314;-59
2021/07/27 09:21:33;;;;;;;;;14.25;14.25;;;;;22.05;54.76;100929.84;4988704;28;51222;-59
2021/07/27 09:23:59;;;;;;;;;17.00;15.25;;;;;22.04;55.11;100928.16;4991486;28;51518;-59
2021/07/27 09:26:24;;;;;;;;;14.00;12.50;;;;;22.03;55.03;100927.31;4993226;28;51333;-59
2021/07/27 09:29:01;;;;;;;;;13.50;11.50;;;;;21.94;55.95;100925.09;4994520;28;51106;-59
2021/07/27 09:31:26;;;;;;;;;18.00;14.25;;;;;21.87;55.81;100925.16;4992432;28;51033;-59
2021/07/27 09:33:52;;;;;;;;;17.50;16.00;;;;;21.82;56.08;100925.84;4994388;28;52092;-59
2021/07/27 09:36:28;;;;;;;;;14.75;14.75;;;;;21.82;56.63;100920.34;4993382;28;51422;-59
2021/07/27 09:39:04;;;;;;;;;15.75;13.25;;;;;21.82;57.06;100917.59;4994733;28;51177;-59
2021/07/27 09:41:30;;;;;;;;;18.50;18.50;;;;;21.88;56.88;100918.56;4993608;28;51094;-59
2021/07/27 09:43:57;;;;;;;;;17.25;15.00;;;;;21.91;56.92;100918.13;4994529;28;52301;-59
2021/07/27 09:46:26;;;;;;;;;17.25;13.00;;;;;21.95;56.30;100918.50;4994680;28;52760;-59
2021/07/27 09:48:53;;;;;;;;;15.75;14.25;;;;;21.98;56.56;100924.38;4994829;28;51553;-60
2021/07/27 09:51:19;;;;;;;;;16.00;15.50;;;;;21.99;56.47;100926.09;4992471;28;51154;-60
2021/07/27 09:53:46;;;;;;;;;17.50;16.25;;;;;22.01;56.93;100925.88;4999599;28;51211;-60
2021/07/27 09:56:11;;;;;;;;;18.25;17.50;;;;;22.05;56.96;100929.84;4990900;28;51233;-60
2021/07/27 09:58:37;;;;;;;;;16.25;13.50;;;;;22.07;55.99;100933.22;4989512;28;51294;-59
2021/07/27 10:01:09;;;;;;;;;17.75;15.75;;;;;21.95;56.03;100935.03;4993720;28;50948;-60
2021/07/27 10:03:44;;;;;;;;;17.00;13.25;;;;;21.83;57.13;100938.56;4989368;28;51274;-61
2021/07/27 10:06:11;;;;;;;;;16.50;15.00;;;;;21.88;56.76;100943.38;4988015;28;52237;-59
2021/07/27 10:08:37;;;;;;;;;9.75;9.75;;;;;22.00;56.89;100944.31;4989476;28;51600;-59
2021/07/27 10:11:09;;;;;;;;;13.50;11.00;;;;;22.16;56.56;100937.38;4991124;28;51038;-59
2021/07/27 10:13:36;;;;;;;;;12.25;11.75;;;;;22.30;57.00;100938.91;4991905;28;51273;-59
2021/07/27 10:16:02;;;;;;;;;17.25;16.00;;;;;22.45;56.54;100947.59;4987263;28;52904;-59
2021/07/27 10:18:32;;;;;;;;;14.50;13.50;;;;;22.59;56.25;100950.16;4989998;28;51204;-59
2021/07/27 10:21:17;;;;;;;;;15.75;12.50;;;;;22.71;56.04;100943.59;4988310;28;51323;-60
2021/07/27 10:23:43;;;;;;;;;13.75;11.50;;;;;22.84;55.94;100950.91;4994721;28;51240;-60
2021/07/27 10:26:08;;;;;;;;;13.75;13.00;;;;;22.94;55.56;100955.88;4993796;28;51948;-59
2021/07/27 10:28:34;;;;;;;;;17.50;14.75;;;;;23.02;55.71;100950.81;4993492;28;51300;-61
2021/07/27 10:31:04;;;;;;;;;14.75;14.75;;;;;23.12;55.61;100953.00;4995385;28;51194;-58
2021/07/27 10:33:30;;;;;;;;;14.50;12.25;;;;;23.20;55.74;100949.06;4991950;28;51090;-58
2021/07/27 10:35:56;;;;;;;;;16.75;13.75;;;;;23.28;54.94;100946.78;4985573;28;52831;-54
2021/07/27 10:38:21;;;;;;;;;13.50;10.75;;;;;23.35;54.93;100954.16;4999644;28;51138;-58
2021/07/27 10:40:47;;;;;;;;;14.25;11.75;;;;;23.41;54.75;100936.59;4990820;28;51233;-57
2021/07/27 10:43:25;;;;;;;;;12.00;10.25;;;;;23.47;54.93;100939.25;4994134;28;51169;-57
2021/07/27 10:45:59;;;;;;;;;12.75;12.75;;;;;23.53;54.36;100938.25;4992823;28;52206;-58
2021/07/27 10:48:54;;;;;;;;;12.00;12.00;;;;;23.60;54.42;100936.25;4992839;28;51516;-58
2021/07/27 10:51:23;;;;;;;;;12.00;11.50;;;;;23.66;54.00;100931.69;4989865;28;51285;-58
2021/07/27 10:53:51;;;;;;;;;12.50;11.00;;;;;23.72;54.15;100927.94;4992924;28;51344;-58
2021/07/27 10:56:18;;;;;;;;;11.00;10.00;;;;;23.78;53.52;100927.00;4993565;28;52005;-58
2021/07/27 10:58:45;;;;;;;;;12.00;11.00;;;;;23.82;54.05;100925.41;4993614;28;51237;-59
2021/07/27 11:01:11;;;;;;;;;12.00;9.50;;;;;23.87;53.91;100916.41;4993375;28;52199;-58
2021/07/27 11:03:38;;;;;;;;;10.00;10.00;;;;;23.92;53.35;100918.44;4993092;28;51087;-58
2021/07/27 11:06:04;;;;;;;;;11.25;10.00;;;;;23.95;53.34;100910.47;4990589;28;51913;-60
2021/07/27 11:08:31;;;;;;;;;11.50;10.25;;;;;24.00;53.32;100918.06;4986656;28;51328;-62
2021/07/27 11:11:10;;;;;;;;;12.50;12.00;;;;;24.04;53.34;100924.78;4994099;28;51700;-60
2021/07/27 11:13:37;;;;;;;;;11.75;10.75;;;;;24.06;53.11;100920.66;4991141;28;51366;-60
2021/07/27 11:16:03;;;;;;;;;9.75;8.25;;;;;24.11;53.11;100918.03;4993378;28;51053;-59
2021/07/27 11:18:29;;;;;;;;;9.00;7.75;;;;;24.13;53.19;100910.31;4992718;28;51317;-60
2021/07/27 11:20:56;;;;;;;;;10.00;10.00;;;;;24.17;53.09;100902.34;4993522;28;52218;-60
2021/07/27 11:23:22;;;;;;;;;10.50;10.00;;;;;24.20;52.85;100907.41;4993912;28;51110;-58
2021/07/27 11:25:53;;;;;;;;;13.00;8.75;;;;;24.23;52.78;100912.44;5008166;28;52322;-59
2021/07/27 11:28:20;;;;;;;;;9.50;9.50;;;;;24.28;53.07;100922.75;4996425;28;51526;-58